Time;durP1;ratioP1;P1;durP2;ratioP2;P2;SDS_P1;SDS_P2;PMS_P1;PMS_P2;Temp;Humidity;BMP_temperature;BMP_pressure;BME280_temperature;BME280_humidity;BME280_pressure;Samples;Min_cycle;Max_cycle;Signal;HPM_P1;HPM_P2
2023/08/29 00:00:10;;;;;;;5.35;2.60;;;;;;;18.70;100.00;95508.81;5037585;28;20201;-66
2023/08/29 00:02:40;;;;;;;5.60;3.03;;;;;;;17.84;100.00;95517.44;5036995;28;20209;-66
2023/08/29 00:05:08;;;;;;;4.70;2.60;;;;;;;17.71;100.00;95512.38;5038908;28;20931;-66
2023/08/29 00:07:34;;;;;;;4.10;2.60;;;;;;;17.48;100.00;95532.97;5039489;28;20232;-66
2023/08/29 00:10:02;;;;;;;6.35;2.95;;;;;;;17.68;100.00;95531.53;5041913;28;20231;-66
2023/08/29 00:12:29;;;;;;;6.20;3.40;;;;;;;17.56;100.00;95536.06;5036397;28;20231;-66
2023/08/29 00:14:56;;;;;;;5.53;3.28;;;;;;;17.66;100.00;95538.94;5037615;28;20701;-66
2023/08/29 00:17:22;;;;;;;5.30;2.80;;;;;;;17.51;100.00;95543.94;5036321;28;20275;-66
2023/08/29 00:19:49;;;;;;;8.60;4.05;;;;;;;17.38;100.00;95544.22;5036825;28;20200;-66
2023/08/29 00:22:16;;;;;;;5.85;3.45;;;;;;;17.34;100.00;95559.06;5037183;28;20240;-66
2023/08/29 00:24:44;;;;;;;5.95;3.42;;;;;;;17.71;100.00;95565.69;5037032;28;20371;-66
2023/08/29 00:27:11;;;;;;;5.40;3.10;;;;;;;17.97;100.00;95560.63;5036699;28;20224;-66
2023/08/29 00:29:38;;;;;;;5.43;3.17;;;;;;;17.53;100.00;95563.19;5037821;28;20804;-66
2023/08/29 00:32:05;;;;;;;5.53;3.53;;;;;;;17.65;100.00;95558.63;5042017;28;20221;-65
2023/08/29 00:34:31;;;;;;;6.15;3.50;;;;;;;17.65;100.00;95565.81;5040960;28;20209;-66
2023/08/29 00:36:58;;;;;;;6.07;3.50;;;;;;;17.63;100.00;95562.56;5043143;28;20221;-66
2023/08/29 00:39:25;;;;;;;4.75;3.10;;;;;;;17.80;100.00;95558.94;5041574;28;20205;-66
2023/08/29 00:41:52;;;;;;;5.05;2.85;;;;;;;17.62;100.00;95567.09;5041477;28;20259;-66
2023/08/29 00:44:20;;;;;;;4.68;2.90;;;;;;;17.86;100.00;95566.78;5042991;28;20300;-66
2023/08/29 00:46:47;;;;;;;4.60;2.58;;;;;;;17.91;100.00;95566.88;5040838;28;20232;-66
2023/08/29 00:49:18;;;;;;;7.32;2.88;;;;;;;18.25;100.00;95562.47;5041802;28;20197;-66
2023/08/29 00:51:45;;;;;;;5.95;3.42;;;;;;;17.95;100.00;95565.38;5040353;28;20225;-66
2023/08/29 00:54:15;;;;;;;5.78;3.50;;;;;;;17.74;100.00;95570.53;5041540;28;20208;-66
2023/08/29 00:56:42;;;;;;;5.20;3.17;;;;;;;17.59;100.00;95570.25;5044428;28;20239;-66
2023/08/29 00:59:08;;;;;;;5.97;3.38;;;;;;;17.54;100.00;95570.16;5041087;28;20242;-66
2023/08/29 01:01:36;;;;;;;5.18;2.92;;;;;;;17.61;100.00;95560.16;5040204;28;21213;-66
2023/08/29 01:04:04;;;;;;;5.45;2.90;;;;;;;17.21;100.00;95574.47;5040756;28;20201;-65
2023/08/29 01:06:31;;;;;;;6.03;3.28;;;;;;;17.15;100.00;95573.53;5045898;28;20233;-66
2023/08/29 01:08:59;;;;;;;7.03;3.50;;;;;;;16.80;100.00;95579.06;5039977;28;20274;-66
2023/08/29 01:11:33;;;;;;;7.57;3.60;;;;;;;17.24;100.00;95566.81;5041276;28;20228;-66
2023/08/29 01:14:03;;;;;;;6.22;3.97;;;;;;;16.92;100.00;95564.75;5040222;28;20207;-66
2023/08/29 01:16:36;;;;;;;5.75;2.97;;;;;;;17.08;100.00;95562.19;5039765;28;20228;-66
2023/08/29 01:19:12;;;;;;;6.65;3.83;;;;;;;17.11;100.00;95559.06;5039879;28;20628;-66
2023/08/29 01:21:46;;;;;;;6.65;3.38;;;;;;;16.62;100.00;95550.75;5041304;28;20197;-65
2023/08/29 01:24:19;;;;;;;5.05;3.17;;;;;;;16.60;100.00;95549.34;5039778;28;20200;-66
2023/08/29 01:26:48;;;;;;;5.82;3.67;;;;;;;16.60;100.00;95539.50;5039788;28;20213;-65
2023/08/29 01:29:16;;;;;;;5.72;3.25;;;;;;;16.29;100.00;95541.66;5040078;28;20212;-65
2023/08/29 01:31:42;;;;;;;8.32;4.45;;;;;;;16.22;100.00;95535.63;5039574;28;20221;-65
2023/08/29 01:34:09;;;;;;;6.50;4.00;;;;;;;16.30;100.00;95534.50;5040584;28;20663;-66
2023/08/29 01:36:40;;;;;;;6.40;3.38;;;;;;;16.61;100.00;95538.47;5041307;28;20307;-66
2023/08/29 01:39:06;;;;;;;6.38;3.55;;;;;;;16.14;100.00;95543.09;5038825;28;20204;-65
2023/08/29 01:41:33;;;;;;;7.63;3.75;;;;;;;15.88;100.00;95535.50;5038911;28;20204;-66
2023/08/29 01:44:03;;;;;;;7.97;3.88;;;;;;;16.19;100.00;95525.44;5040706;28;20201;-66
2023/08/29 01:46:29;;;;;;;8.50;4.03;;;;;;;15.70;100.00;95526.78;5041518;28;20228;-66
2023/08/29 01:48:57;;;;;;;6.38;4.10;;;;;;;15.92;100.00;95524.22;5039916;28;20211;-66
2023/08/29 01:51:24;;;;;;;6.18;3.15;;;;;;;15.81;100.00;95515.38;5040174;28;20702;-66
2023/08/29 01:53:51;;;;;;;5.97;3.72;;;;;;;15.76;100.00;95516.06;5044723;28;20206;-66
2023/08/29 01:56:20;;;;;;;6.60;3.85;;;;;;;15.85;100.00;95512.88;5039445;28;20224;-66
2023/08/29 01:58:48;;;;;;;6.05;3.65;;;;;;;15.96;100.00;95514.75;5039323;28;20201;-65
2023/08/29 02:01:16;;;;;;;8.98;4.22;;;;;;;15.75;100.00;95508.34;5040128;28;20201;-65
2023/08/29 02:03:43;;;;;;;16.90;4.57;;;;;;;15.76;100.00;95507.28;5038908;28;20207;-65
2023/08/29 02:06:09;;;;;;;8.20;4.53;;;;;;;15.59;100.00;95507.13;5040650;28;20312;-66
2023/08/29 02:08:36;;;;;;;7.40;4.33;;;;;;;15.49;100.00;95506.84;5038876;28;20882;-66
2023/08/29 02:11:02;;;;;;;7.43;4.23;;;;;;;15.21;100.00;95500.47;5039625;28;20311;-67
2023/08/29 02:13:29;;;;;;;9.57;4.53;;;;;;;15.34;100.00;95497.66;5038999;28;20210;-67
2023/08/29 02:15:56;;;;;;;7.35;4.07;;;;;;;15.42;100.00;95505.31;5039524;28;20237;-67
2023/08/29 02:18:25;;;;;;;7.68;4.35;;;;;;;15.62;100.00;95498.69;5039070;28;20573;-65
2023/08/29 02:20:51;;;;;;;9.67;4.43;;;;;;;15.33;100.00;95490.72;5038943;28;20800;-67
2023/08/29 02:23:18;;;;;;;10.63;4.75;;;;;;;15.28;100.00;95493.22;5038277;28;20212;-65
2023/08/29 02:25:44;;;;;;;7.97;4.53;;;;;;;15.29;100.00;95489.56;5041289;28;20208;-67
2023/08/29 02:28:11;;;;;;;8.30;4.45;;;;;;;15.36;100.00;95491.09;5038393;28;21113;-65
2023/08/29 02:30:37;;;;;;;7.43;4.53;;;;;;;15.15;100.00;95488.06;5038207;28;20204;-68
2023/08/29 02:33:04;;;;;;;9.10;5.43;;;;;;;15.09;100.00;95483.63;5039060;28;20205;-67
2023/08/29 02:35:32;;;;;;;11.27;4.60;;;;;;;15.49;100.00;95490.09;5040006;28;20863;-67
2023/08/29 02:37:58;;;;;;;8.48;4.55;;;;;;;15.23;100.00;95495.75;5042239;28;20694;-67
2023/08/29 02:40:25;;;;;;;7.45;4.20;;;;;;;15.31;100.00;95492.78;5038743;28;20212;-67
2023/08/29 02:42:51;;;;;;;6.97;4.45;;;;;;;15.28;100.00;95493.22;5041788;28;20217;-67
2023/08/29 02:45:18;;;;;;;8.00;4.03;;;;;;;15.29;100.00;95490.34;5038183;28;20674;-67
2023/08/29 02:47:44;;;;;;;9.70;4.20;;;;;;;15.21;100.00;95489.88;5037753;28;20217;-66
2023/08/29 02:50:11;;;;;;;7.50;4.43;;;;;;;15.42;100.00;95482.22;5039669;28;20202;-66
2023/08/29 02:52:39;;;;;;;7.45;4.13;;;;;;;15.73;100.00;95481.19;5036402;28;20726;-66
2023/08/29 02:55:06;;;;;;;8.20;4.90;;;;;;;15.93;100.00;95488.63;5038324;28;20201;-67
2023/08/29 02:57:33;;;;;;;7.50;4.68;;;;;;;15.87;100.00;95484.22;5038056;28;20225;-66
2023/08/29 02:59:59;;;;;;;7.35;4.35;;;;;;;15.79;100.00;95485.59;5038562;28;20212;-66
2023/08/29 03:02:26;;;;;;;7.10;4.00;;;;;;;15.57;100.00;95487.94;5037068;28;20208;-66
2023/08/29 03:04:53;;;;;;;7.25;4.15;;;;;;;15.44;100.00;95484.63;5042747;28;20392;-66
2023/08/29 03:07:20;;;;;;;7.80;4.45;;;;;;;15.58;100.00;95484.25;5040000;28;20221;-66
2023/08/29 03:09:48;;;;;;;8.52;4.22;;;;;;;15.66;100.00;95491.09;5037408;28;20197;-66
2023/08/29 03:12:14;;;;;;;6.43;3.95;;;;;;;15.22;100.00;95490.66;5038395;28;20257;-66
2023/08/29 03:14:41;;;;;;;12.13;4.38;;;;;;;15.31;100.00;95482.16;5038449;28;20208;-66
2023/08/29 03:17:07;;;;;;;7.72;4.68;;;;;;;15.37;100.00;95483.94;5040905;28;20228;-67
2023/08/29 03:19:34;;;;;;;7.97;4.50;;;;;;;15.45;100.00;95476.47;5037481;28;20704;-67
2023/08/29 03:22:00;;;;;;;8.80;4.63;;;;;;;15.09;100.00;95480.97;5038594;28;20201;-67
2023/08/29 03:24:26;;;;;;;7.97;4.65;;;;;;;15.28;100.00;95483.41;5037143;28;20205;-66
2023/08/29 03:26:54;;;;;;;6.95;4.07;;;;;;;15.52;100.00;95479.03;5036999;28;20225;-66
2023/08/29 03:29:21;;;;;;;7.40;4.18;;;;;;;15.44;100.00;95474.84;5038431;28;20197;-67
2023/08/29 03:31:47;;;;;;;8.60;4.93;;;;;;;15.36;100.00;95475.16;5040194;28;20220;-66
2023/08/29 03:34:14;;;;;;;9.10;4.60;;;;;;;15.53;100.00;95470.00;5043534;28;20216;-66
2023/08/29 03:36:40;;;;;;;9.20;4.93;;;;;;;15.62;100.00;95468.69;5042036;28;20899;-67
2023/08/29 03:39:07;;;;;;;8.45;4.90;;;;;;;15.61;100.00;95472.38;5042860;28;20231;-66
2023/08/29 03:41:33;;;;;;;7.57;4.23;;;;;;;15.89;100.00;95466.19;5039396;28;20223;-66
2023/08/29 03:44:01;;;;;;;7.47;4.05;;;;;;;16.22;100.00;95468.34;5039108;28;20209;-67
2023/08/29 03:46:27;;;;;;;7.78;3.88;;;;;;;15.90;100.00;95464.38;5036642;28;20225;-66
2023/08/29 03:48:54;;;;;;;7.72;4.70;;;;;;;16.14;100.00;95469.50;5037471;28;20224;-66
2023/08/29 03:51:20;;;;;;;6.78;3.92;;;;;;;16.05;100.00;95464.72;5037704;28;20225;-66
2023/08/29 03:53:47;;;;;;;8.00;5.07;;;;;;;15.92;100.00;95467.59;5037515;28;20919;-67
2023/08/29 03:56:14;;;;;;;7.70;4.78;;;;;;;16.14;100.00;95461.53;5037789;28;20221;-67
2023/08/29 03:58:40;;;;;;;6.77;4.07;;;;;;;15.84;100.00;95468.72;5037144;28;20196;-66
2023/08/29 04:01:11;;;;;;;7.00;4.15;;;;;;;16.48;100.00;95470.59;5038026;28;20197;-67
2023/08/29 04:03:38;;;;;;;7.88;4.10;;;;;;;16.11;100.00;95464.63;5036887;28;20292;-67
2023/08/29 04:06:05;;;;;;;7.22;4.25;;;;;;;16.21;100.00;95459.56;5041602;28;20227;-67
2023/08/29 04:08:31;;;;;;;12.77;5.35;;;;;;;15.94;100.00;95455.69;5036056;28;20223;-66
2023/08/29 04:10:58;;;;;;;7.05;3.63;;;;;;;16.26;100.00;95462.38;5037172;28;20671;-66
2023/08/29 04:13:24;;;;;;;7.83;4.40;;;;;;;16.09;100.00;95456.09;5037865;28;20208;-66
2023/08/29 04:15:51;;;;;;;9.10;4.63;;;;;;;15.97;100.00;95463.25;5036585;28;20247;-66
2023/08/29 04:18:19;;;;;;;7.77;4.43;;;;;;;16.38;100.00;95465.03;5037482;28;20201;-66
2023/08/29 04:20:45;;;;;;;6.80;4.43;;;;;;;16.32;100.00;95466.78;5038102;28;20193;-67
2023/08/29 04:23:12;;;;;;;6.25;4.38;;;;;;;15.99;100.00;95466.47;5038185;28;21153;-67
2023/08/29 04:25:38;;;;;;;5.72;3.72;;;;;;;16.03;100.00;95464.97;5035978;28;20212;-67
2023/08/29 04:28:06;;;;;;;6.85;3.78;;;;;;;16.37;100.00;95460.75;5040004;28;20220;-67
2023/08/29 04:30:33;;;;;;;7.20;4.18;;;;;;;16.31;100.00;95462.50;5037401;28;20205;-67
2023/08/29 04:32:59;;;;;;;7.40;4.22;;;;;;;15.96;100.00;95461.63;5036337;28;20217;-67
2023/08/29 04:35:27;;;;;;;7.65;4.28;;;;;;;16.50;100.00;95475.44;5040482;28;20209;-67
2023/08/29 04:37:54;;;;;;;7.23;4.30;;;;;;;16.34;100.00;95480.63;5035792;28;20224;-67
2023/08/29 04:40:21;;;;;;;8.20;4.40;;;;;;;16.17;100.00;95478.88;5037234;28;20216;-67
2023/08/29 04:42:48;;;;;;;6.53;3.88;;;;;;;16.06;100.00;95472.50;5036755;28;21049;-67
2023/08/29 04:45:14;;;;;;;12.02;4.38;;;;;;;16.11;100.00;95467.28;5037734;28;20324;-66
2023/08/29 04:47:41;;;;;;;9.13;4.40;;;;;;;16.00;100.00;95462.78;5035785;28;20217;-66
2023/08/29 04:50:08;;;;;;;7.73;4.30;;;;;;;15.60;100.00;95468.88;5037291;28;20242;-66
2023/08/29 04:52:36;;;;;;;6.70;4.20;;;;;;;15.93;100.00;95471.88;5036572;28;20236;-66
2023/08/29 04:55:04;;;;;;;6.77;4.20;;;;;;;15.68;100.00;95468.59;5036476;28;20678;-66
2023/08/29 04:57:31;;;;;;;6.17;4.03;;;;;;;15.70;100.00;95471.81;5036458;28;20225;-66
2023/08/29 04:59:57;;;;;;;7.03;3.58;;;;;;;15.81;100.00;95471.06;5037009;28;20204;-66
2023/08/29 05:02:24;;;;;;;4.70;3.30;;;;;;;15.79;100.00;95474.97;5036782;28;20757;-66
2023/08/29 05:04:52;;;;;;;7.07;4.03;;;;;;;15.85;100.00;95475.66;5038917;28;20200;-66
2023/08/29 05:07:19;;;;;;;5.28;3.47;;;;;;;16.26;100.00;95473.00;5034958;28;20225;-66
2023/08/29 05:09:47;;;;;;;5.70;3.70;;;;;;;16.28;100.00;95478.91;5038301;28;20205;-66
2023/08/29 05:12:14;;;;;;;4.97;3.45;;;;;;;16.25;100.00;95471.34;5036790;28;21127;-66
2023/08/29 05:14:40;;;;;;;5.50;3.58;;;;;;;16.31;100.00;95478.44;5048783;28;20212;-66
2023/08/29 05:17:09;;;;;;;6.70;3.90;;;;;;;16.81;100.00;95468.94;5039698;28;20232;-66
2023/08/29 05:19:36;;;;;;;7.20;3.92;;;;;;;15.90;100.00;95475.00;5050246;28;20209;-66
2023/08/29 05:22:03;;;;;;;6.07;3.88;;;;;;;15.68;100.00;95479.22;5039736;28;20531;-66
2023/08/29 05:24:29;;;;;;;5.57;3.38;;;;;;;15.56;100.00;95470.38;5045905;28;20835;-66
2023/08/29 05:26:57;;;;;;;6.70;3.75;;;;;;;15.79;100.00;95474.97;5040136;28;20223;-66
2023/08/29 05:29:23;;;;;;;5.88;3.75;;;;;;;15.68;100.00;95473.06;5047883;28;20216;-66
2023/08/29 05:31:50;;;;;;;5.10;3.58;;;;;;;15.54;100.00;95468.97;5042310;28;20596;-66
2023/08/29 05:34:16;;;;;;;5.43;3.28;;;;;;;15.58;100.00;95470.97;5047714;28;20213;-67
2023/08/29 05:36:43;;;;;;;5.88;3.67;;;;;;;15.50;100.00;95475.78;5038341;28;20221;-66
2023/08/29 05:39:09;;;;;;;5.65;3.63;;;;;;;15.89;100.00;95482.13;5039955;28;20686;-67
2023/08/29 05:41:36;;;;;;;6.88;4.20;;;;;;;16.01;100.00;95479.50;5040512;28;20206;-67
2023/08/29 05:44:04;;;;;;;7.63;3.63;;;;;;;16.17;100.00;95479.66;5040236;28;20201;-67
2023/08/29 05:46:31;;;;;;;5.78;3.53;;;;;;;15.72;100.00;95488.34;5041202;28;20231;-66
2023/08/29 05:48:59;;;;;;;5.53;3.45;;;;;;;15.73;100.00;95483.84;5039421;28;20201;-66
2023/08/29 05:51:25;;;;;;;4.67;3.23;;;;;;;15.88;100.00;95477.06;5039969;28;20213;-65
2023/08/29 05:53:53;;;;;;;5.25;3.20;;;;;;;15.62;100.00;95489.94;5039944;28;21323;-66
2023/08/29 05:56:19;;;;;;;6.00;3.37;;;;;;;15.84;100.00;95488.38;5038451;28;20612;-66
2023/08/29 05:58:46;;;;;;;5.95;3.15;;;;;;;15.76;100.00;95497.47;5043209;28;20197;-65
2023/08/29 06:01:14;;;;;;;5.53;3.33;;;;;;;15.86;100.00;95498.56;5039043;28;21357;-65
2023/08/29 06:03:41;;;;;;;4.37;3.20;;;;;;;15.83;100.00;95497.38;5040052;28;20895;-66
2023/08/29 06:06:08;;;;;;;4.32;2.42;;;;;;;15.76;100.00;95504.63;5039395;28;20655;-66
2023/08/29 06:08:34;;;;;;;4.55;2.72;;;;;;;15.72;100.00;95500.81;5039757;28;20224;-66
2023/08/29 06:11:01;;;;;;;3.70;2.50;;;;;;;16.01;100.00;95495.47;5038465;28;20594;-65
2023/08/29 06:13:28;;;;;;;4.33;2.87;;;;;;;16.15;100.00;95503.03;5039934;28;20240;-66
2023/08/29 06:15:54;;;;;;;3.13;2.50;;;;;;;16.28;100.00;95505.50;5038996;28;20221;-66
2023/08/29 06:18:22;;;;;;;3.60;2.40;;;;;;;16.23;100.00;95505.34;5038464;28;20208;-65
2023/08/29 06:20:49;;;;;;;5.32;2.30;;;;;;;15.85;100.00;95515.53;5039033;28;20206;-66
2023/08/29 06:23:16;;;;;;;2.85;2.00;;;;;;;15.96;100.00;95513.94;5038595;28;20193;-65
2023/08/29 06:25:42;;;;;;;5.40;2.87;;;;;;;15.84;100.00;95509.63;5038879;28;20201;-65
2023/08/29 06:28:09;;;;;;;3.57;2.43;;;;;;;16.18;100.00;95523.03;5037941;28;20560;-66
2023/08/29 06:30:35;;;;;;;2.55;2.05;;;;;;;16.16;100.00;95515.25;5039661;28;20201;-66
2023/08/29 06:33:02;;;;;;;3.25;2.20;;;;;;;15.99;100.00;95519.59;5038772;28;20671;-66
2023/08/29 06:35:30;;;;;;;2.97;2.30;;;;;;;16.08;100.00;95526.22;5041099;28;20216;-66
2023/08/29 06:37:56;;;;;;;3.35;2.15;;;;;;;16.07;100.00;95529.09;5037851;28;20251;-66
2023/08/29 06:40:24;;;;;;;3.35;2.15;;;;;;;16.31;100.00;95531.63;5040381;28;20573;-66
2023/08/29 06:42:50;;;;;;;3.57;2.27;;;;;;;15.82;100.00;95533.75;5039731;28;20201;-66
2023/08/29 06:45:16;;;;;;;3.42;1.80;;;;;;;15.81;100.00;95541.94;5037667;28;20205;-65
2023/08/29 06:47:43;;;;;;;3.40;2.17;;;;;;;15.98;100.00;95544.56;5038492;28;20232;-66
2023/08/29 06:50:10;;;;;;;3.30;2.40;;;;;;;15.88;100.00;95539.00;5037920;28;20686;-66
2023/08/29 06:52:38;;;;;;;3.33;2.30;;;;;;;16.62;100.00;95548.09;5039307;28;20242;-66
2023/08/29 06:55:05;;;;;;;3.10;2.20;;;;;;;16.20;100.00;95547.50;5038070;28;20205;-66
2023/08/29 06:57:31;;;;;;;3.28;2.08;;;;;;;15.97;100.00;95548.28;5038543;28;20225;-66
2023/08/29 06:59:58;;;;;;;4.32;2.22;;;;;;;16.07;100.00;95558.34;5037798;28;20204;-65
2023/08/29 07:02:25;;;;;;;3.50;2.42;;;;;;;16.12;100.00;95551.31;5038158;28;20568;-66
2023/08/29 07:04:52;;;;;;;2.90;2.10;;;;;;;16.35;100.00;95554.03;5041596;28;20645;-66
2023/08/29 07:07:19;;;;;;;2.30;1.98;;;;;;;16.40;100.00;95556.03;5040702;28;20240;-66
2023/08/29 07:09:47;;;;;;;2.90;2.15;;;;;;;16.75;100.00;95563.00;5039162;28;20594;-66
2023/08/29 07:12:14;;;;;;;3.95;2.20;;;;;;;16.23;100.00;95561.16;5040834;28;20212;-66
2023/08/29 07:14:40;;;;;;;5.13;2.33;;;;;;;16.18;100.00;95568.22;5040273;28;20225;-66
2023/08/29 07:17:07;;;;;;;3.28;2.40;;;;;;;16.48;100.00;95567.13;5036829;28;20597;-65
2023/08/29 07:19:33;;;;;;;3.10;1.92;;;;;;;15.87;100.00;95573.75;5037463;28;20205;-66
2023/08/29 07:22:00;;;;;;;2.78;2.17;;;;;;;15.84;100.00;95568.09;5036083;28;20196;-66
2023/08/29 07:24:27;;;;;;;3.73;2.17;;;;;;;16.33;100.00;95572.09;5037151;28;20202;-65
2023/08/29 07:26:54;;;;;;;3.77;2.20;;;;;;;16.57;100.00;95571.91;5036367;28;20225;-66
2023/08/29 07:29:21;;;;;;;2.92;2.20;;;;;;;16.03;100.00;95559.84;5036140;28;20201;-66
2023/08/29 07:31:47;;;;;;;4.95;2.58;;;;;;;16.08;100.00;95568.75;5036443;28;20682;-66
2023/08/29 07:34:15;;;;;;;3.92;2.22;;;;;;;16.53;100.00;95577.91;5035885;28;20221;-65
2023/08/29 07:36:42;;;;;;;3.42;2.15;;;;;;;16.26;100.00;95567.91;5035017;28;20221;-65
2023/08/29 07:39:08;;;;;;;4.13;2.55;;;;;;;16.47;100.00;95570.84;5035134;28;20217;-65
2023/08/29 07:41:35;;;;;;;3.95;2.53;;;;;;;16.36;100.00;95574.28;5035795;28;20220;-65
2023/08/29 07:44:03;;;;;;;4.10;2.58;;;;;;;16.94;100.00;95573.31;5036189;28;20682;-66
2023/08/29 07:46:30;;;;;;;3.72;2.50;;;;;;;16.48;100.00;95573.28;5035329;28;20231;-66
2023/08/29 07:48:56;;;;;;;3.25;2.10;;;;;;;16.58;100.00;95570.03;5036025;28;20687;-66
2023/08/29 07:51:23;;;;;;;3.60;2.65;;;;;;;16.98;100.00;95573.66;5034650;28;20218;-65
2023/08/29 07:53:50;;;;;;;3.70;2.43;;;;;;;16.57;100.00;95576.38;5036758;28;20229;-65
2023/08/29 07:56:16;;;;;;;5.55;2.17;;;;;;;16.27;100.00;95577.50;5034115;28;20582;-66
2023/08/29 07:58:43;;;;;;;4.10;2.38;;;;;;;16.02;100.00;95576.81;5044413;28;20471;-65
2023/08/29 08:01:11;;;;;;;3.88;2.45;;;;;;;16.34;100.00;95571.03;5035100;28;20209;-66
2023/08/29 08:03:38;;;;;;;4.75;2.35;;;;;;;16.54;100.00;95571.53;5035581;28;20201;-66
2023/08/29 08:06:06;;;;;;;3.95;2.38;;;;;;;16.39;100.00;95581.78;5034775;28;20225;-66
2023/08/29 08:08:32;;;;;;;3.33;2.20;;;;;;;16.43;100.00;95582.16;5034602;28;20492;-66
2023/08/29 08:10:59;;;;;;;3.60;2.40;;;;;;;16.24;100.00;95580.56;5034731;28;20212;-65
2023/08/29 08:13:28;;;;;;;3.42;2.40;;;;;;;16.47;100.00;95578.84;5033609;28;20233;-66
2023/08/29 08:15:54;;;;;;;8.35;3.08;;;;;;;16.61;100.00;95580.22;5034863;28;20699;-66
2023/08/29 08:18:22;;;;;;;4.13;2.35;;;;;;;16.56;100.00;95585.44;5033813;28;20545;-65
2023/08/29 08:20:48;;;;;;;3.08;2.03;;;;;;;16.42;100.00;95581.38;5035545;28;20197;-65
2023/08/29 08:23:15;;;;;;;3.13;2.00;;;;;;;16.38;100.00;95590.84;5033916;28;20197;-65
2023/08/29 08:25:42;;;;;;;2.80;2.03;;;;;;;16.52;100.00;95585.06;5035938;28;20231;-66
2023/08/29 08:28:08;;;;;;;2.42;1.83;;;;;;;16.74;100.00;95585.34;5035183;28;20231;-66
2023/08/29 08:30:37;;;;;;;3.72;2.42;;;;;;;16.45;100.00;95591.53;5034765;28;20994;-65
2023/08/29 08:33:05;;;;;;;5.20;2.17;;;;;;;16.39;100.00;95579.13;5035052;28;20220;-65
2023/08/29 08:35:33;;;;;;;2.28;1.90;;;;;;;16.56;100.00;95588.91;5034888;28;20839;-65
2023/08/29 08:37:59;;;;;;;3.20;2.28;;;;;;;16.50;100.00;95589.00;5033179;28;20855;-66
2023/08/29 08:40:26;;;;;;;3.08;1.98;;;;;;;16.82;100.00;95591.13;5034066;28;20201;-66
2023/08/29 08:42:54;;;;;;;2.22;1.40;;;;;;;16.78;100.00;95594.47;5037387;28;20406;-64
2023/08/29 08:45:23;;;;;;;3.13;1.73;;;;;;;16.95;100.00;95587.44;5034993;28;20197;-65
2023/08/29 08:47:50;;;;;;;2.70;1.60;;;;;;;17.06;100.00;95591.94;5035397;28;20231;-65
2023/08/29 08:50:17;;;;;;;2.08;1.70;;;;;;;16.96;100.00;95595.16;5035938;28;20205;-65
2023/08/29 08:52:47;;;;;;;2.40;1.80;;;;;;;17.35;100.00;95597.97;5039604;28;20205;-65
2023/08/29 08:55:14;;;;;;;2.83;1.70;;;;;;;17.13;100.00;95599.59;5038406;28;20198;-65
2023/08/29 08:57:41;;;;;;;2.58;1.70;;;;;;;16.88;100.00;95602.69;5037699;28;20702;-65
2023/08/29 09:00:08;;;;;;;2.17;1.50;;;;;;;16.65;100.00;95594.69;5038463;28;20733;-65
2023/08/29 09:02:37;;;;;;;2.45;1.63;;;;;;;17.38;100.00;95605.47;5038594;28;20205;-65
2023/08/29 09:05:04;;;;;;;2.25;1.50;;;;;;;17.18;100.00;95607.69;5043557;28;20205;-65
2023/08/29 09:07:30;;;;;;;1.95;1.58;;;;;;;16.69;100.00;95598.53;5039627;28;20233;-65
2023/08/29 09:10:09;;;;;;;2.90;2.00;;;;;;;17.15;100.00;95600.13;5038278;28;20197;-65
2023/08/29 09:12:36;;;;;;;1.67;1.33;;;;;;;16.97;100.00;95595.97;5038451;28;20205;-65
2023/08/29 09:15:05;;;;;;;1.55;1.45;;;;;;;17.98;100.00;95598.72;5038190;28;20765;-66
2023/08/29 09:17:33;;;;;;;3.28;1.77;;;;;;;17.68;100.00;95600.81;5038006;28;20235;-65
2023/08/29 09:20:00;;;;;;;3.00;1.60;;;;;;;17.56;100.00;95605.34;5039497;28;20198;-65
2023/08/29 09:22:27;;;;;;;3.58;1.50;;;;;;;17.38;100.00;95612.66;5037293;28;20671;-65
2023/08/29 09:25:02;;;;;;;2.13;1.42;;;;;;;17.40;100.00;95608.72;5039245;28;21157;-65
2023/08/29 09:27:30;;;;;;;2.67;1.50;;;;;;;17.21;100.00;95612.53;5038953;28;20274;-66
2023/08/29 09:30:07;;;;;;;1.33;1.23;;;;;;;17.63;100.00;95616.69;5037934;28;20201;-66
2023/08/29 09:32:34;;;;;;;1.77;1.42;;;;;;;17.49;100.00;95610.00;5037905;28;20208;-65
2023/08/29 09:35:00;;;;;;;2.08;1.42;;;;;;;17.60;100.00;95613.69;5039160;28;20243;-65
2023/08/29 09:37:27;;;;;;;1.67;1.52;;;;;;;17.97;100.00;95613.09;5036771;28;20279;-65
2023/08/29 09:39:54;;;;;;;1.73;1.25;;;;;;;18.22;100.00;95610.97;5039166;28;20216;-65
2023/08/29 09:42:21;;;;;;;2.05;1.63;;;;;;;18.28;100.00;95607.31;5037896;28;20209;-65
2023/08/29 09:44:50;;;;;;;1.83;1.38;;;;;;;18.25;100.00;95605.16;5042073;28;20601;-65
2023/08/29 09:47:23;;;;;;;1.75;1.20;;;;;;;18.06;100.00;95615.19;5037340;28;20221;-65
2023/08/29 09:49:50;;;;;;;1.35;1.20;;;;;;;17.56;100.00;95631.97;5038130;28;20213;-65
2023/08/29 09:52:18;;;;;;;1.63;1.50;;;;;;;17.80;100.00;95630.91;5037771;28;20584;-65
2023/08/29 09:54:48;;;;;;;1.23;1.13;;;;;;;18.00;100.00;95623.31;5038244;28;20221;-65
2023/08/29 09:57:15;;;;;;;2.05;1.48;;;;;;;17.92;100.00;95627.16;5038200;28;20217;-65
2023/08/29 09:59:43;;;;;;;5.30;1.80;;;;;;;18.10;100.00;95634.16;5041833;28;20204;-65
2023/08/29 10:02:13;;;;;;;2.15;1.52;;;;;;;18.31;100.00;95626.34;5037309;28;20209;-66
2023/08/29 10:04:44;;;;;;;2.28;1.63;;;;;;;18.11;100.00;95636.59;5039018;28;20211;-66
2023/08/29 10:07:14;;;;;;;5.10;3.60;;;;;;;18.14;100.00;95632.63;5035954;28;20228;-65
2023/08/29 10:09:42;;;;;;;2.65;1.80;;;;;;;18.05;100.00;95636.72;5038276;28;20209;-65
2023/08/29 10:12:09;;;;;;;2.58;1.77;;;;;;;18.07;100.00;95635.44;5040207;28;20201;-65
2023/08/29 10:14:37;;;;;;;2.20;1.60;;;;;;;18.16;100.00;95634.00;5040839;28;20236;-65
2023/08/29 10:17:05;;;;;;;1.92;1.50;;;;;;;17.83;100.00;95641.91;5037015;28;20781;-65
2023/08/29 10:19:35;;;;;;;2.72;1.50;;;;;;;18.14;100.00;95643.28;5036842;28;20966;-65
2023/08/29 10:22:04;;;;;;;4.25;2.03;;;;;;;18.97;100.00;95640.59;5038031;28;20197;-65
2023/08/29 10:24:32;;;;;;;2.08;1.38;;;;;;;18.95;100.00;95635.50;5037605;28;20596;-66
2023/08/29 10:27:00;;;;;;;2.80;1.38;;;;;;;18.93;100.00;95637.59;5037216;28;20221;-65
2023/08/29 10:29:26;;;;;;;1.88;1.20;;;;;;;17.91;100.00;95640.72;5036478;28;20209;-65
2023/08/29 10:31:53;;;;;;;1.75;1.17;;;;;;;17.92;100.00;95637.00;5037999;28;20205;-65
2023/08/29 10:34:21;;;;;;;2.70;1.30;;;;;;;17.72;100.00;95641.94;5037436;28;20710;-66
2023/08/29 10:36:49;;;;;;;1.60;1.15;;;;;;;17.78;100.00;95640.97;5036919;28;20257;-65
2023/08/29 10:39:15;;;;;;;2.15;1.45;;;;;;;17.82;100.00;95639.47;5037382;28;20201;-65
2023/08/29 10:41:46;;;;;;;1.77;1.10;;;;;;;17.95;100.00;95632.00;5037413;28;21137;-65
2023/08/29 10:44:40;;;;;;;1.92;1.30;;;;;;;18.49;100.00;95629.59;5043621;28;20603;-65
2023/08/29 10:47:16;;;;;;;2.50;1.33;;;;;;;18.42;100.00;95630.81;5034235;28;20322;-65
2023/08/29 10:49:43;;;;;;;1.58;1.33;;;;;;;18.17;100.00;95641.00;5037568;28;20208;-65
2023/08/29 10:52:12;;;;;;;1.83;1.40;;;;;;;18.58;100.00;95625.53;5036392;28;20632;-65
2023/08/29 10:54:38;;;;;;;1.52;1.08;;;;;;;18.27;100.00;95640.41;5037427;28;20220;-65
2023/08/29 10:57:26;;;;;;;1.73;1.30;;;;;;;18.84;100.00;95637.41;5036307;28;20225;-66
2023/08/29 10:59:53;;;;;;;2.45;1.40;;;;;;;18.42;100.00;95646.84;5037612;28;20205;-66
2023/08/29 11:02:25;;;;;;;1.58;0.98;;;;;;;18.78;100.00;95631.19;5036023;28;20284;-66
2023/08/29 11:04:52;;;;;;;1.73;1.30;;;;;;;18.44;100.00;95642.88;5038398;28;20197;-65
2023/08/29 11:07:26;;;;;;;1.50;1.10;;;;;;;18.88;100.00;95634.03;5034952;28;20221;-65
2023/08/29 11:10:17;;;;;;;1.17;1.02;;;;;;;18.51;100.00;95640.06;5035123;28;20205;-66
2023/08/29 11:13:04;;;;;;;1.20;1.10;;;;;;;19.10;100.00;95633.06;5035256;28;20208;-65
2023/08/29 11:16:08;;;;;;;1.05;0.95;;;;;;;19.42;100.00;95636.75;5035331;28;20229;-65
2023/08/29 11:18:35;;;;;;;2.05;1.00;;;;;;;17.99;100.00;95645.69;5035563;28;20197;-65
2023/08/29 11:21:09;;;;;;;1.17;1.02;;;;;;;18.33;100.00;95642.09;5035618;28;20205;-65
2023/08/29 11:23:41;;;;;;;1.35;1.20;;;;;;;17.87;100.00;95639.56;5036355;28;20209;-65
2023/08/29 11:26:09;;;;;;;1.73;1.23;;;;;;;17.76;100.00;95648.41;5035068;28;20217;-65